createdAt,value
2019-04-23T00:02:21.494Z,102052.35
2019-04-23T00:04:55.588Z,102047.02
2019-04-23T00:07:44.487Z,102051.59
2019-04-23T00:10:03.562Z,102049.75
2019-04-23T00:12:45.231Z,102045.47
2019-04-23T00:17:42.658Z,102053.42
2019-04-23T00:20:14.690Z,102057.41
2019-04-23T00:22:53.287Z,102053.45
2019-04-23T00:25:45.020Z,102053.95
2019-04-23T00:28:14.163Z,102053.09
2019-04-23T00:33:31.425Z,102051.77
2019-04-23T00:35:59.689Z,102053.76
2019-04-23T00:38:33.560Z,102052.62
2019-04-23T00:43:43.118Z,102058.76
2019-04-23T00:46:15.562Z,102060.53
2019-04-23T00:48:51.855Z,102057.16
2019-04-23T00:51:20.360Z,102059.82
2019-04-23T00:53:51.417Z,102061.90
2019-04-23T00:56:38.703Z,102064.34
2019-04-23T00:59:01.416Z,102063.41
2019-04-23T01:01:44.458Z,102068.50
2019-04-23T01:04:04.805Z,102071.27
2019-04-23T01:06:46.051Z,102064.52
2019-04-23T01:09:15.272Z,102060.32
2019-04-23T01:11:48.199Z,102059.56
2019-04-23T01:14:20.239Z,102061.33
2019-04-23T01:16:55.057Z,102054.47
2019-04-23T01:21:49.362Z,102059.92
2019-04-23T01:24:34.422Z,102061.17
2019-04-23T01:30:15.911Z,102067.78
2019-04-23T01:32:44.030Z,102067.93
2019-04-23T01:37:46.538Z,102065.45
2019-04-23T01:40:26.023Z,102062.44
2019-04-23T01:42:58.708Z,102065.34
2019-04-23T01:45:48.130Z,102068.18
2019-04-23T01:48:09.577Z,102064.02
2019-04-23T01:50:48.328Z,102071.27
2019-04-23T01:53:24.709Z,102077.75
2019-04-23T01:55:52.705Z,102073.72
2019-04-23T01:58:40.300Z,102066.87
2019-04-23T02:01:00.738Z,102072.52
2019-04-23T02:03:34.704Z,102078.23
2019-04-23T02:06:11.716Z,102074.58
2019-04-23T02:08:44.632Z,102077.94
2019-04-23T02:11:28.164Z,102078.55
2019-04-23T02:16:21.693Z,102079.79
2019-04-23T02:21:26.013Z,102082.55
2019-04-23T02:23:57.301Z,102083.14
2019-04-23T02:26:33.895Z,102082.95
2019-04-23T02:34:31.348Z,102091.73
2019-04-23T02:36:57.796Z,102088.78
2019-04-23T02:39:32.740Z,102095.66
2019-04-23T02:47:23.119Z,102090.91
2019-04-23T02:52:21.371Z,102099.52
2019-04-23T02:57:18.680Z,102103.55
2019-04-23T03:02:47.844Z,102106.90
2019-04-23T03:05:00.870Z,102115.67
2019-04-23T03:07:45.624Z,102112.31
2019-04-23T03:13:10.230Z,102111.28
2019-04-23T03:15:52.679Z,102116.09
2019-04-23T03:23:44.261Z,102117.11
2019-04-23T03:26:36.856Z,102129.25
2019-04-23T03:29:06.513Z,102132.67
2019-04-23T03:34:45.432Z,102128.70
2019-04-23T03:37:14.364Z,102127.44
2019-04-23T03:39:05.838Z,102133.03
2019-04-23T03:41:48.271Z,102137.09
2019-04-23T03:44:27.058Z,102141.94
2019-04-23T03:46:51.410Z,102136.09
2019-04-23T03:49:32.783Z,102137.61
2019-04-23T03:54:42.153Z,102132.08
2019-04-23T03:57:24.583Z,102134.92
2019-04-23T03:59:51.961Z,102140.05
2019-04-23T04:02:36.517Z,102143.64
2019-04-23T04:04:44.532Z,102136.80
2019-04-23T04:10:07.828Z,102147.00
2019-04-23T04:12:39.663Z,102135.88
2019-04-23T04:15:06.174Z,102135.88
2019-04-23T04:18:14.018Z,102152.62
2019-04-23T04:20:19.758Z,102147.92
2019-04-23T04:23:15.391Z,102147.27
2019-04-23T04:25:30.703Z,102142.43
2019-04-23T04:28:12.374Z,102135.13
2019-04-23T04:30:33.769Z,102137.06
2019-04-23T04:33:09.798Z,102140.98
2019-04-23T04:40:42.184Z,102146.05
2019-04-23T04:46:10.015Z,102147.14
2019-04-23T04:48:22.987Z,102142.17
2019-04-23T04:51:00.731Z,102139.04
2019-04-23T04:53:46.705Z,102130.81
2019-04-23T04:58:46.709Z,102140.19
2019-04-23T05:01:13.827Z,102134.60
2019-04-23T05:03:57.901Z,102141.19
2019-04-23T05:08:54.405Z,102135.52
2019-04-23T05:11:34.990Z,102138.53
2019-04-23T05:16:29.453Z,102134.05
2019-04-23T05:21:46.615Z,102134.84
2019-04-23T05:24:15.033Z,102139.63
2019-04-23T05:26:37.598Z,102139.95
2019-04-23T05:29:14.973Z,102138.23
2019-04-23T05:31:56.050Z,102142.11
2019-04-23T05:34:38.081Z,102139.35
2019-04-23T05:37:07.108Z,102142.41
2019-04-23T05:42:10.629Z,102143.38
2019-04-23T05:44:52.539Z,102149.41
2019-04-23T05:47:21.703Z,102147.32
2019-04-23T05:49:52.026Z,102147.52
2019-04-23T05:52:34.365Z,102149.68
2019-04-23T05:55:01.686Z,102152.73
2019-04-23T05:57:42.741Z,102152.65
2019-04-23T06:00:19.339Z,102154.31
2019-04-23T06:02:59.225Z,102158.40
2019-04-23T06:05:30.501Z,102157.80
2019-04-23T06:08:09.534Z,102158.48
2019-04-23T06:10:40.693Z,102161.59
2019-04-23T06:13:13.694Z,102164.39
2019-04-23T06:15:58.150Z,102160.78
2019-04-23T06:23:30.451Z,102161.61
2019-04-23T06:26:15.500Z,102155.13
2019-04-23T06:28:31.551Z,102154.80
2019-04-23T06:31:09.738Z,102165.78
2019-04-23T06:33:41.802Z,102168.19
2019-04-23T06:36:19.518Z,102167.33
2019-04-23T06:41:30.590Z,102172.34
2019-04-23T06:44:09.199Z,102173.45
2019-04-23T06:46:37.379Z,102172.73
2019-04-23T06:49:14.455Z,102177.91
2019-04-23T06:54:31.524Z,102180.73
2019-04-23T06:59:30.765Z,102180.97
2019-04-23T07:02:07.989Z,102185.83
2019-04-23T07:04:41.010Z,102186.81
2019-04-23T07:07:36.571Z,102187.32
2019-04-23T07:09:47.127Z,102182.61
2019-04-23T07:12:25.732Z,102184.14
2019-04-23T07:15:13.264Z,102187.15
2019-04-23T07:17:30.990Z,102195.56
2019-04-23T07:20:06.767Z,102189.16
2019-04-23T07:22:46.871Z,102189.29
2019-04-23T07:25:15.922Z,102193.84
2019-04-23T07:27:51.112Z,102195.02
2019-04-23T07:30:20.913Z,102198.70
2019-04-23T07:32:56.638Z,102193.52
2019-04-23T07:35:31.991Z,102190.95
2019-04-23T07:41:47.931Z,102193.98
2019-04-23T07:44:24.570Z,102192.31
2019-04-23T07:47:16.278Z,102192.85
2019-04-23T07:49:52.224Z,102189.25
2019-04-23T07:52:31.983Z,102188.27
2019-04-23T07:54:58.761Z,102195.78
2019-04-23T08:00:00.929Z,102164.70
2019-04-23T08:02:45.281Z,102194.52
2019-04-23T08:05:15.630Z,102191.77
2019-04-23T08:07:47.294Z,102187.55
2019-04-23T08:10:14.155Z,102192.40
2019-04-23T08:12:52.733Z,102191.92
2019-04-23T08:15:28.278Z,102193.86
2019-04-23T08:17:59.027Z,102189.12
2019-04-23T08:20:35.098Z,102189.50
2019-04-23T08:23:21.784Z,102189.50
2019-04-23T08:28:59.641Z,102196.59
2019-04-23T08:31:16.542Z,102191.86
2019-04-23T08:33:58.403Z,102197.45
2019-04-23T08:36:29.452Z,102189.80
2019-04-23T08:38:58.685Z,102195.89
2019-04-23T08:41:33.773Z,102185.52
2019-04-23T08:47:02.666Z,102192.35
2019-04-23T08:49:47.623Z,102194.82
2019-04-23T08:54:48.296Z,102191.70
2019-04-23T08:57:14.456Z,102187.23
2019-04-23T09:02:30.610Z,102194.61
2019-04-23T09:05:00.518Z,102186.61
2019-04-23T09:07:27.600Z,102184.20
2019-04-23T09:10:04.726Z,102196.28
2019-04-23T09:12:55.236Z,102191.76
2019-04-23T09:15:15.383Z,102184.25
2019-04-23T09:17:47.818Z,102180.17
2019-04-23T09:20:23.296Z,102185.38
2019-04-23T09:22:53.032Z,102184.52
2019-04-23T09:25:37.314Z,102182.86
2019-04-23T09:27:59.456Z,102176.66
2019-04-23T09:30:42.811Z,102181.08
2019-04-23T09:33:41.384Z,102181.88
2019-04-23T09:36:25.679Z,102176.86
2019-04-23T09:39:06.351Z,102176.09
2019-04-23T09:41:37.254Z,102178.27
2019-04-23T09:44:56.272Z,102183.63
2019-04-23T09:47:16.041Z,102172.22
2019-04-23T09:49:50.155Z,102175.38
2019-04-23T09:57:47.355Z,102180.20
2019-04-23T10:00:26.906Z,102174.47
2019-04-23T10:02:45.621Z,102175.33
2019-04-23T10:05:22.453Z,102172.48
2019-04-23T10:07:53.340Z,102172.30
2019-04-23T10:10:16.475Z,102170.10
2019-04-23T10:12:50.183Z,102165.00
2019-04-23T10:15:26.673Z,102163.91
2019-04-23T10:17:56.370Z,102166.61
2019-04-23T10:20:29.033Z,102167.59
2019-04-23T10:23:02.147Z,102166.02
2019-04-23T10:25:36.041Z,102170.17
2019-04-23T10:28:25.079Z,102169.44
2019-04-23T10:30:58.713Z,102169.24
2019-04-23T10:33:31.786Z,102169.59
2019-04-23T10:36:10.760Z,102175.47
2019-04-23T10:38:41.690Z,102170.95
2019-04-23T10:41:13.967Z,102156.36
2019-04-23T10:43:52.216Z,102156.17
2019-04-23T10:46:42.990Z,102155.45
2019-04-23T10:52:13.492Z,102159.74
2019-04-23T10:54:52.303Z,102156.23
2019-04-23T10:57:12.776Z,102156.50
2019-04-23T10:59:43.303Z,102159.03
2019-04-23T11:07:32.529Z,102156.98
2019-04-23T11:10:08.600Z,102166.77
2019-04-23T11:12:46.408Z,102163.34
2019-04-23T11:15:32.240Z,102165.42
2019-04-23T11:18:02.796Z,102153.62
2019-04-23T11:23:01.664Z,102139.27
2019-04-23T11:28:21.390Z,102155.47
2019-04-23T11:31:03.497Z,102156.55
2019-04-23T11:33:37.962Z,102156.77
2019-04-23T11:36:41.075Z,102162.35
2019-04-23T11:38:56.225Z,102128.72
2019-04-23T11:41:32.292Z,102149.53
2019-04-23T11:43:53.413Z,102154.45
2019-04-23T11:49:34.667Z,102142.37
2019-04-23T11:59:31.508Z,102141.96
2019-04-23T12:02:12.102Z,102144.81
2019-04-23T12:05:17.287Z,102145.66
2019-04-23T12:07:50.276Z,102137.09
2019-04-23T12:13:16.847Z,102138.59
2019-04-23T12:15:51.722Z,102136.52
2019-04-23T12:18:28.396Z,102135.07
2019-04-23T12:21:14.283Z,102132.37
2019-04-23T12:26:31.370Z,102126.30
2019-04-23T12:28:49.713Z,102134.28
2019-04-23T12:31:26.674Z,102127.69
2019-04-23T12:34:09.624Z,102128.66
2019-04-23T12:39:30.421Z,102123.27
2019-04-23T12:42:11.184Z,102117.23
2019-04-23T12:44:44.233Z,102116.86
2019-04-23T12:47:18.751Z,102120.20
2019-04-23T12:52:17.115Z,102114.84
2019-04-23T12:54:59.014Z,102113.15
2019-04-23T12:57:29.752Z,102104.52
2019-04-23T12:59:58.330Z,102108.62
2019-04-23T13:02:38.325Z,102108.48
2019-04-23T13:05:12.441Z,102104.77
2019-04-23T13:10:15.856Z,102101.95
2019-04-23T13:20:33.557Z,102092.81
2019-04-23T13:25:49.504Z,102090.96
2019-04-23T13:28:21.439Z,102084.37
2019-04-23T13:30:53.035Z,102083.45
2019-04-23T13:36:08.443Z,102084.81
2019-04-23T13:38:43.841Z,102083.03
2019-04-23T13:41:17.167Z,102085.94
2019-04-23T13:46:14.915Z,102081.73
2019-04-23T13:48:46.971Z,102077.84
2019-04-23T13:51:26.017Z,102081.04
2019-04-23T13:54:04.190Z,102087.23
2019-04-23T13:57:03.222Z,102081.27
2019-04-23T13:59:29.030Z,102086.23
2019-04-23T14:01:57.952Z,102075.64
2019-04-23T14:04:40.283Z,102071.53
2019-04-23T14:07:09.860Z,102078.44
2019-04-23T14:09:57.155Z,102074.08
2019-04-23T14:12:17.723Z,102077.70
2019-04-23T14:15:06.461Z,102073.02
2019-04-23T14:17:46.738Z,102071.19
2019-04-23T14:20:09.919Z,102069.36
2019-04-23T14:25:11.506Z,102061.14
2019-04-23T14:28:01.335Z,102060.89
2019-04-23T14:30:29.933Z,102064.39
2019-04-23T14:33:00.934Z,102063.91
2019-04-23T14:38:15.693Z,102051.34
2019-04-23T14:40:43.146Z,102047.78
2019-04-23T14:43:14.631Z,102058.70
2019-04-23T14:46:27.115Z,102055.20
2019-04-23T14:48:27.906Z,102057.39
2019-04-23T14:51:11.204Z,102061.52
2019-04-23T14:53:30.192Z,102056.36
2019-04-23T14:56:09.415Z,102056.36
2019-04-23T15:11:45.149Z,102054.94
2019-04-23T15:17:00.404Z,102049.47
2019-04-23T15:22:13.620Z,102044.38
2019-04-23T15:24:48.639Z,102043.64
2019-04-23T15:29:49.994Z,102038.66
2019-04-23T15:32:38.142Z,102038.20
2019-04-23T15:35:18.566Z,102031.03
2019-04-23T15:45:28.558Z,102037.56
2019-04-23T15:48:03.337Z,102035.05
2019-04-23T15:50:52.419Z,102030.32
2019-04-23T15:55:51.773Z,102031.34
2019-04-23T15:58:24.689Z,102036.08
2019-04-23T16:00:55.838Z,102035.36
2019-04-23T16:02:55.999Z,102039.91
2019-04-23T16:05:27.884Z,102044.12
2019-04-23T16:08:23.915Z,102037.67
2019-04-23T16:11:10.359Z,102034.59
2019-04-23T16:13:36.545Z,102033.55
2019-04-23T16:16:18.703Z,102044.20
2019-04-23T16:19:07.256Z,102047.90
2019-04-23T16:21:47.721Z,102049.33
2019-04-23T16:24:13.581Z,102045.50
2019-04-23T16:26:50.674Z,102041.89
2019-04-23T16:31:54.730Z,102040.20
2019-04-23T16:34:33.229Z,102046.09
2019-04-23T16:37:09.907Z,102048.16
2019-04-23T16:39:49.245Z,102049.09
2019-04-23T16:45:12.437Z,102050.97
2019-04-23T16:47:26.495Z,102057.29
2019-04-23T16:52:36.698Z,102054.03
2019-04-23T16:55:12.917Z,102056.72
2019-04-23T16:57:43.826Z,102053.75
2019-04-23T17:00:22.926Z,102055.89
2019-04-23T17:03:02.358Z,102053.70
2019-04-23T17:05:33.418Z,102060.87
2019-04-23T17:08:24.281Z,102060.91
2019-04-23T17:10:38.666Z,102058.67
2019-04-23T17:15:53.825Z,102045.47
2019-04-23T17:18:16.742Z,102066.46
2019-04-23T17:20:53.092Z,102072.42
2019-04-23T17:23:34.522Z,102077.83
2019-04-23T17:26:04.232Z,102076.08
2019-04-23T17:28:33.038Z,102078.51
2019-04-23T17:31:26.325Z,102075.98
2019-04-23T17:39:08.551Z,102083.36
2019-04-23T17:42:01.427Z,102081.64
2019-04-23T17:47:14.160Z,102091.86
2019-04-23T17:49:53.936Z,102089.16
2019-04-23T17:52:20.314Z,102097.44
2019-04-23T17:54:55.248Z,102092.70
2019-04-23T18:02:55.879Z,102094.09
2019-04-23T18:05:27.368Z,102094.31
2019-04-23T18:10:30.352Z,102097.41
2019-04-23T18:12:58.392Z,102106.15
2019-04-23T18:15:24.373Z,102101.75
2019-04-23T18:18:10.104Z,102108.39
2019-04-23T18:20:52.178Z,102109.20
2019-04-23T18:23:18.331Z,102113.78
2019-04-23T18:26:07.950Z,102103.77
2019-04-23T18:28:37.120Z,102107.63
2019-04-23T18:31:14.336Z,102111.33
2019-04-23T18:36:13.242Z,102109.73
2019-04-23T18:38:53.075Z,102107.59
2019-04-23T18:41:18.102Z,102111.52
2019-04-23T18:44:02.943Z,102107.98
2019-04-23T18:46:37.239Z,102111.95
2019-04-23T18:49:10.879Z,102111.25
2019-04-23T18:51:55.105Z,102113.83
2019-04-23T18:54:24.044Z,102113.03
2019-04-23T18:59:39.289Z,102121.89
2019-04-23T19:02:17.356Z,102116.03
2019-04-23T19:05:08.362Z,102115.38
2019-04-23T19:07:51.628Z,102115.59
2019-04-23T19:10:29.260Z,102112.95
2019-04-23T19:12:56.997Z,102112.78
2019-04-23T19:18:12.917Z,102117.58
2019-04-23T19:21:03.805Z,102117.84
2019-04-23T19:23:42.793Z,102112.55
2019-04-23T19:26:41.815Z,102115.50
2019-04-23T19:31:46.231Z,102111.03
2019-04-23T19:44:38.398Z,102116.73
2019-04-23T19:47:33.254Z,102113.98
2019-04-23T19:52:11.376Z,102120.80
2019-04-23T19:57:28.518Z,102121.72
2019-04-23T19:59:57.913Z,102114.61
2019-04-23T20:02:58.250Z,102116.06
2019-04-23T20:05:03.091Z,102117.09
2019-04-23T20:07:48.893Z,102119.55
2019-04-23T20:10:17.490Z,102115.96
2019-04-23T20:12:44.590Z,102118.98
2019-04-23T20:15:29.559Z,102125.11
2019-04-23T20:17:54.194Z,102129.64
2019-04-23T20:20:45.426Z,102131.98
2019-04-23T20:23:13.984Z,102130.31
2019-04-23T20:26:10.277Z,102136.95
2019-04-23T20:28:57.800Z,102137.66
2019-04-23T20:34:24.400Z,102135.96
2019-04-23T20:36:46.197Z,102128.54
2019-04-23T20:39:34.932Z,102137.67
2019-04-23T20:42:08.954Z,102133.53
2019-04-23T20:49:42.736Z,102140.59
2019-04-23T20:57:39.182Z,102140.86
2019-04-23T21:00:03.569Z,102144.40
2019-04-23T21:03:08.266Z,102141.22
2019-04-23T21:05:15.438Z,102138.41
2019-04-23T21:15:37.415Z,102150.32
2019-04-23T21:20:45.171Z,102157.02
2019-04-23T21:23:14.253Z,102153.48
2019-04-23T21:25:47.637Z,102152.62
2019-04-23T21:28:47.575Z,102159.07
2019-04-23T21:31:11.511Z,102159.45
2019-04-23T21:36:37.845Z,102160.79
2019-04-23T21:42:01.941Z,102158.97
2019-04-23T21:47:04.618Z,102155.84
2019-04-23T21:49:50.366Z,102159.86
2019-04-23T21:54:49.564Z,102156.22
2019-04-23T21:57:31.007Z,102156.43
2019-04-23T21:59:56.063Z,102155.57
2019-04-23T22:02:28.587Z,102152.75
2019-04-23T22:05:21.361Z,102149.09
2019-04-23T22:07:40.171Z,102152.37
2019-04-23T22:10:02.678Z,102161.19
2019-04-23T22:12:52.714Z,102167.73
2019-04-23T22:15:13.072Z,102165.55
2019-04-23T22:17:45.974Z,102163.86
2019-04-23T22:25:34.878Z,102174.89
2019-04-23T22:27:58.233Z,102169.63
2019-04-23T22:30:54.715Z,102172.06
2019-04-23T22:33:09.878Z,102166.19
2019-04-23T22:35:48.235Z,102167.66
2019-04-23T22:38:21.126Z,102163.88
2019-04-23T22:40:56.169Z,102169.69
2019-04-23T22:46:08.673Z,102167.47
2019-04-23T22:48:47.824Z,102170.61
2019-04-23T22:53:50.787Z,102167.61
2019-04-23T22:56:20.734Z,102168.97
2019-04-23T23:01:43.134Z,102166.96
2019-04-23T23:04:04.799Z,102169.70
2019-04-23T23:06:48.898Z,102169.41
2019-04-23T23:09:23.115Z,102168.98
2019-04-23T23:16:57.001Z,102165.40
2019-04-23T23:19:31.662Z,102163.81
2019-04-23T23:24:39.569Z,102168.71
2019-04-23T23:27:12.821Z,102171.52
2019-04-23T23:29:49.670Z,102172.20
2019-04-23T23:32:22.790Z,102169.49
2019-04-23T23:35:12.917Z,102185.59
2019-04-23T23:37:19.210Z,102185.38
2019-04-23T23:40:05.075Z,102183.00
2019-04-23T23:42:36.792Z,102175.89
2019-04-23T23:45:10.234Z,102185.28
2019-04-23T23:47:38.074Z,102182.39
2019-04-23T23:50:22.809Z,102184.33
2019-04-23T23:53:03.995Z,102187.09
2019-04-23T23:58:04.718Z,102187.78
